Atiramapattinam, India

12:42 PM IST on December 28, 2014 (GMT +0530)
Tiruchirappalli | Change Station
CLOSE
Current Station
Airport
Location: Triuchirapalli,
Elevation: 289 ft
Nearby Weather Stations

Elev 289 ft 10.77 °N, 78.71 °E | Updated 32 minutes ago

Overcast
Overcast
77 °F
Feels Like 77 °F
N
12
Wind Variable Wind from North

Today
High -- | Low -- °F
--% Chance of Precip.
Yesterday
High -- | Low -- °F
Precip. -- in
6:28 AM 5:59 PM
Waxing Crescent, 45% visible
Pressure 29.89 in
Visibility 1.2 miles
Clouds Few 1000 ft
Scattered Clouds 1800 ft
Overcast 8000 ft
Dew Point 72 °F
Humidity 83%
Rainfall 0.00 in
Snow Depth Not available.
UV 3 out of 12
Pollen Not available.
Air Quality Not available.
Flu Activity Not available.
METAR VOTR 280640Z 36010KT 2000 BR FEW010 SCT018 OVC080 25/22 Q1012 NOSIG

More Conditions Fewer Conditions

Pressure 29.89 in
Visibility 1.2 miles
Clouds Few 1000 ft
Scattered Clouds 1800 ft
Overcast 8000 ft
Dew Point 72 °F
Humidity 83%
Rainfall 0.00 in
Snow Depth Not available.
UV 3 out of 12
Pollen Not available.
Air Quality Not available.
Flu Activity Not available.
METAR VOTR 280640Z 36010KT 2000 BR FEW010 SCT018 OVC080 25/22 Q1012 NOSIG

More Conditions Fewer Conditions

10-Day Weather Forecast

Almanac

Astronomy

Dec. 28, 2014 Rise Set
Actual Time
Civil Twilight
Nautical Twilight
Astronomical Twilight
Moon
Length of Visible Light
Length of Day
Tomorrow will be .
, % of the Moon is Illuminated

Today's Extremes

Country Highs Country Lows

Community

WunderPhotos

Upload Photos

1,781,209 photos uploaded!

WunderBlogs® & News

Nearby

Air Quality

  Air Quality AQ Index Pollutant
Not available.

Snow Depth

Station Depth Elevation

Earthquake Activity

City Distance Mag. Time & Date
Minimum magnitude displayed is 2.5.

Coastal Water Temperatures

Place Temperature

Nearby Weather Stations